sensor_id;sensor_type;location;lat;lon;timestamp;temperature;humidity
71367;DHT22;60030;52.274;8.040;2022-07-23T00:00:17;17.90;99.90
71367;DHT22;60030;52.274;8.040;2022-07-23T00:02:44;17.90;99.90
71367;DHT22;60030;52.274;8.040;2022-07-23T00:05:13;17.90;99.90
71367;DHT22;60030;52.274;8.040;2022-07-23T00:07:40;17.80;99.90
71367;DHT22;60030;52.274;8.040;2022-07-23T00:10:08;17.80;99.90
71367;DHT22;60030;52.274;8.040;2022-07-23T00:12:35;17.90;99.90
71367;DHT22;60030;52.274;8.040;2022-07-23T00:15:03;17.90;99.90
71367;DHT22;60030;52.274;8.040;2022-07-23T00:17:31;17.90;99.90
71367;DHT22;60030;52.274;8.040;2022-07-23T00:19:58;17.90;99.90
71367;DHT22;60030;52.274;8.040;2022-07-23T00:22:27;17.80;99.90
71367;DHT22;60030;52.274;8.040;2022-07-23T00:24:55;17.70;99.90
71367;DHT22;60030;52.274;8.040;2022-07-23T00:27:22;17.70;99.90
71367;DHT22;60030;52.274;8.040;2022-07-23T00:29:49;17.80;99.90
71367;DHT22;60030;52.274;8.040;2022-07-23T00:32:16;17.70;99.90
71367;DHT22;60030;52.274;8.040;2022-07-23T00:34:43;17.40;99.90
71367;DHT22;60030;52.274;8.040;2022-07-23T00:37:10;17.60;99.90
71367;DHT22;60030;52.274;8.040;2022-07-23T00:39:39;17.60;99.90
71367;DHT22;60030;52.274;8.040;2022-07-23T00:42:06;17.70;99.90
71367;DHT22;60030;52.274;8.040;2022-07-23T00:44:33;17.70;99.90
71367;DHT22;60030;52.274;8.040;2022-07-23T00:47:00;17.70;99.90
71367;DHT22;60030;52.274;8.040;2022-07-23T00:49:28;17.70;99.90
71367;DHT22;60030;52.274;8.040;2022-07-23T00:51:56;17.70;99.90
71367;DHT22;60030;52.274;8.040;2022-07-23T00:54:25;17.70;99.90
71367;DHT22;60030;52.274;8.040;2022-07-23T00:56:54;17.70;99.90
71367;DHT22;60030;52.274;8.040;2022-07-23T00:59:22;17.60;99.90
71367;DHT22;60030;52.274;8.040;2022-07-23T01:01:49;17.50;99.90
71367;DHT22;60030;52.274;8.040;2022-07-23T01:04:16;17.50;99.90
71367;DHT22;60030;52.274;8.040;2022-07-23T01:06:43;17.50;99.90
71367;DHT22;60030;52.274;8.040;2022-07-23T01:09:12;17.60;99.90
71367;DHT22;60030;52.274;8.040;2022-07-23T01:11:40;17.60;99.90
71367;DHT22;60030;52.274;8.040;2022-07-23T01:14:12;17.60;99.90
71367;DHT22;60030;52.274;8.040;2022-07-23T01:16:40;17.50;99.90
71367;DHT22;60030;52.274;8.040;2022-07-23T01:19:07;17.50;99.90
71367;DHT22;60030;52.274;8.040;2022-07-23T01:21:37;17.50;99.90
71367;DHT22;60030;52.274;8.040;2022-07-23T01:24:06;17.50;99.90
71367;DHT22;60030;52.274;8.040;2022-07-23T01:26:36;17.40;99.90
71367;DHT22;60030;52.274;8.040;2022-07-23T01:29:04;17.40;99.90
71367;DHT22;60030;52.274;8.040;2022-07-23T01:31:32;17.30;99.90
71367;DHT22;60030;52.274;8.040;2022-07-23T01:33:59;17.30;99.90
71367;DHT22;60030;52.274;8.040;2022-07-23T01:36:27;17.40;99.90
71367;DHT22;60030;52.274;8.040;2022-07-23T01:38:54;17.40;99.90
71367;DHT22;60030;52.274;8.040;2022-07-23T01:41:23;17.40;99.90
71367;DHT22;60030;52.274;8.040;2022-07-23T01:43:50;17.30;99.90
71367;DHT22;60030;52.274;8.040;2022-07-23T01:46:18;17.20;99.90
71367;DHT22;60030;52.274;8.040;2022-07-23T01:48:48;17.30;99.90
71367;DHT22;60030;52.274;8.040;2022-07-23T01:51:45;17.30;99.90
71367;DHT22;60030;52.274;8.040;2022-07-23T01:54:32;17.30;99.90
71367;DHT22;60030;52.274;8.040;2022-07-23T01:57:02;17.30;99.90
71367;DHT22;60030;52.274;8.040;2022-07-23T01:59:30;17.30;99.90
71367;DHT22;60030;52.274;8.040;2022-07-23T02:01:58;17.30;99.90
71367;DHT22;60030;52.274;8.040;2022-07-23T02:04:25;17.30;99.90
71367;DHT22;60030;52.274;8.040;2022-07-23T02:06:53;17.30;99.90
71367;DHT22;60030;52.274;8.040;2022-07-23T02:09:20;17.30;99.90
71367;DHT22;60030;52.274;8.040;2022-07-23T02:11:48;17.30;99.90
71367;DHT22;60030;52.274;8.040;2022-07-23T02:14:17;17.30;99.90
71367;DHT22;60030;52.274;8.040;2022-07-23T02:16:45;17.30;99.90
71367;DHT22;60030;52.274;8.040;2022-07-23T02:19:14;17.30;99.90
71367;DHT22;60030;52.274;8.040;2022-07-23T02:21:41;17.20;99.90
71367;DHT22;60030;52.274;8.040;2022-07-23T02:24:09;17.20;99.90
71367;DHT22;60030;52.274;8.040;2022-07-23T02:26:37;17.20;99.90
71367;DHT22;60030;52.274;8.040;2022-07-23T02:29:05;17.20;99.90
71367;DHT22;60030;52.274;8.040;2022-07-23T02:31:34;17.20;99.90
71367;DHT22;60030;52.274;8.040;2022-07-23T02:34:01;17.10;99.90
71367;DHT22;60030;52.274;8.040;2022-07-23T02:36:29;17.20;99.90
71367;DHT22;60030;52.274;8.040;2022-07-23T02:38:57;17.20;99.90
71367;DHT22;60030;52.274;8.040;2022-07-23T02:41:26;17.20;99.90
71367;DHT22;60030;52.274;8.040;2022-07-23T02:43:53;17.20;99.90
71367;DHT22;60030;52.274;8.040;2022-07-23T02:46:21;17.20;99.90
71367;DHT22;60030;52.274;8.040;2022-07-23T02:48:50;17.20;99.90
71367;DHT22;60030;52.274;8.040;2022-07-23T02:51:17;17.20;99.90
71367;DHT22;60030;52.274;8.040;2022-07-23T02:53:52;17.20;99.90
71367;DHT22;60030;52.274;8.040;2022-07-23T02:56:20;17.20;99.90
71367;DHT22;60030;52.274;8.040;2022-07-23T02:58:47;17.20;99.90
71367;DHT22;60030;52.274;8.040;2022-07-23T03:01:14;17.20;99.90
71367;DHT22;60030;52.274;8.040;2022-07-23T03:03:41;17.20;99.90
71367;DHT22;60030;52.274;8.040;2022-07-23T03:06:10;17.20;99.90
71367;DHT22;60030;52.274;8.040;2022-07-23T03:08:38;17.20;99.90
71367;DHT22;60030;52.274;8.040;2022-07-23T03:11:05;17.20;99.90
71367;DHT22;60030;52.274;8.040;2022-07-23T03:13:37;17.20;99.90
71367;DHT22;60030;52.274;8.040;2022-07-23T03:16:05;17.20;99.90
71367;DHT22;60030;52.274;8.040;2022-07-23T03:18:32;17.20;99.90
71367;DHT22;60030;52.274;8.040;2022-07-23T03:20:59;17.10;99.90
71367;DHT22;60030;52.274;8.040;2022-07-23T03:23:28;17.10;99.90
71367;DHT22;60030;52.274;8.040;2022-07-23T03:25:55;17.10;99.90
71367;DHT22;60030;52.274;8.040;2022-07-23T03:28:23;17.10;99.90
71367;DHT22;60030;52.274;8.040;2022-07-23T03:30:50;17.10;99.90
71367;DHT22;60030;52.274;8.040;2022-07-23T03:33:18;17.10;99.90
71367;DHT22;60030;52.274;8.040;2022-07-23T03:35:46;17.00;99.90
71367;DHT22;60030;52.274;8.040;2022-07-23T03:38:19;17.00;99.90
71367;DHT22;60030;52.274;8.040;2022-07-23T03:40:48;17.00;99.90
71367;DHT22;60030;52.274;8.040;2022-07-23T03:43:15;17.00;99.90
71367;DHT22;60030;52.274;8.040;2022-07-23T03:45:45;17.00;99.90
71367;DHT22;60030;52.274;8.040;2022-07-23T03:48:13;17.00;99.90
71367;DHT22;60030;52.274;8.040;2022-07-23T03:50:40;17.00;99.90
71367;DHT22;60030;52.274;8.040;2022-07-23T03:53:07;16.90;99.90
71367;DHT22;60030;52.274;8.040;2022-07-23T03:55:35;16.90;99.90
71367;DHT22;60030;52.274;8.040;2022-07-23T03:58:04;16.90;99.90
71367;DHT22;60030;52.274;8.040;2022-07-23T04:00:31;16.80;99.90
71367;DHT22;60030;52.274;8.040;2022-07-23T04:02:59;16.80;99.90
71367;DHT22;60030;52.274;8.040;2022-07-23T04:05:27;16.80;99.90
71367;DHT22;60030;52.274;8.040;2022-07-23T04:08:04;16.80;99.90
71367;DHT22;60030;52.274;8.040;2022-07-23T04:10:32;16.80;99.90
71367;DHT22;60030;52.274;8.040;2022-07-23T04:12:59;16.90;99.90
71367;DHT22;60030;52.274;8.040;2022-07-23T04:15:27;16.90;99.90
71367;DHT22;60030;52.274;8.040;2022-07-23T04:17:55;16.90;99.90
71367;DHT22;60030;52.274;8.040;2022-07-23T04:20:27;16.90;99.90
71367;DHT22;60030;52.274;8.040;2022-07-23T04:22:58;16.80;99.90
71367;DHT22;60030;52.274;8.040;2022-07-23T04:25:25;16.80;99.90
71367;DHT22;60030;52.274;8.040;2022-07-23T04:27:52;16.80;99.90
71367;DHT22;60030;52.274;8.040;2022-07-23T04:30:19;16.80;99.90
71367;DHT22;60030;52.274;8.040;2022-07-23T04:32:48;16.80;99.90
71367;DHT22;60030;52.274;8.040;2022-07-23T04:35:21;16.80;99.90
71367;DHT22;60030;52.274;8.040;2022-07-23T04:37:51;16.80;99.90
71367;DHT22;60030;52.274;8.040;2022-07-23T04:40:19;16.80;99.90
71367;DHT22;60030;52.274;8.040;2022-07-23T04:42:46;16.80;99.90
71367;DHT22;60030;52.274;8.040;2022-07-23T04:45:13;16.80;99.90
71367;DHT22;60030;52.274;8.040;2022-07-23T04:47:42;16.80;99.90
71367;DHT22;60030;52.274;8.040;2022-07-23T04:50:11;16.90;99.90
71367;DHT22;60030;52.274;8.040;2022-07-23T04:52:39;16.90;99.90
71367;DHT22;60030;52.274;8.040;2022-07-23T04:55:07;16.90;99.90
71367;DHT22;60030;52.274;8.040;2022-07-23T04:57:35;16.90;99.90
71367;DHT22;60030;52.274;8.040;2022-07-23T05:00:02;16.90;99.90
71367;DHT22;60030;52.274;8.040;2022-07-23T05:02:30;16.90;99.90
71367;DHT22;60030;52.274;8.040;2022-07-23T05:04:57;16.90;99.90
71367;DHT22;60030;52.274;8.040;2022-07-23T05:07:25;16.90;99.90
71367;DHT22;60030;52.274;8.040;2022-07-23T05:09:53;16.90;99.90
71367;DHT22;60030;52.274;8.040;2022-07-23T05:12:20;16.90;99.90
71367;DHT22;60030;52.274;8.040;2022-07-23T05:14:47;16.90;99.90
71367;DHT22;60030;52.274;8.040;2022-07-23T05:17:14;17.00;99.90
71367;DHT22;60030;52.274;8.040;2022-07-23T05:19:41;16.90;99.90
71367;DHT22;60030;52.274;8.040;2022-07-23T05:22:08;17.00;99.90
71367;DHT22;60030;52.274;8.040;2022-07-23T05:24:37;17.00;99.90
71367;DHT22;60030;52.274;8.040;2022-07-23T05:27:05;17.00;99.90
71367;DHT22;60030;52.274;8.040;2022-07-23T05:29:33;17.00;99.90
71367;DHT22;60030;52.274;8.040;2022-07-23T05:32:00;16.90;99.90
71367;DHT22;60030;52.274;8.040;2022-07-23T05:34:29;16.90;99.90
71367;DHT22;60030;52.274;8.040;2022-07-23T05:36:58;16.90;99.90
71367;DHT22;60030;52.274;8.040;2022-07-23T05:39:25;16.90;99.90
71367;DHT22;60030;52.274;8.040;2022-07-23T05:41:53;16.90;99.90
71367;DHT22;60030;52.274;8.040;2022-07-23T05:44:21;17.00;99.90
71367;DHT22;60030;52.274;8.040;2022-07-23T05:46:48;17.10;99.90
71367;DHT22;60030;52.274;8.040;2022-07-23T05:49:20;17.00;99.90
71367;DHT22;60030;52.274;8.040;2022-07-23T05:52:05;17.10;99.90
71367;DHT22;60030;52.274;8.040;2022-07-23T05:55:05;17.10;99.90
71367;DHT22;60030;52.274;8.040;2022-07-23T05:57:33;17.20;99.90
71367;DHT22;60030;52.274;8.040;2022-07-23T06:00:00;17.20;99.90
71367;DHT22;60030;52.274;8.040;2022-07-23T06:02:28;17.10;99.90
71367;DHT22;60030;52.274;8.040;2022-07-23T06:04:55;17.10;99.90
71367;DHT22;60030;52.274;8.040;2022-07-23T06:07:28;17.20;99.90
71367;DHT22;60030;52.274;8.040;2022-07-23T06:09:56;17.20;99.90
71367;DHT22;60030;52.274;8.040;2022-07-23T06:12:24;17.20;99.90
71367;DHT22;60030;52.274;8.040;2022-07-23T06:14:53;17.20;99.90
71367;DHT22;60030;52.274;8.040;2022-07-23T06:17:20;17.20;99.90
71367;DHT22;60030;52.274;8.040;2022-07-23T06:19:47;17.20;99.90
71367;DHT22;60030;52.274;8.040;2022-07-23T06:22:15;17.30;99.90
71367;DHT22;60030;52.274;8.040;2022-07-23T06:24:42;17.20;99.90
71367;DHT22;60030;52.274;8.040;2022-07-23T06:27:09;17.10;99.90
71367;DHT22;60030;52.274;8.040;2022-07-23T06:29:37;17.30;99.90
71367;DHT22;60030;52.274;8.040;2022-07-23T06:32:06;17.40;99.90
71367;DHT22;60030;52.274;8.040;2022-07-23T06:34:33;17.40;99.90
71367;DHT22;60030;52.274;8.040;2022-07-23T06:37:00;17.50;99.90
71367;DHT22;60030;52.274;8.040;2022-07-23T06:39:27;17.60;99.90
71367;DHT22;60030;52.274;8.040;2022-07-23T06:41:54;17.60;99.90
71367;DHT22;60030;52.274;8.040;2022-07-23T06:44:34;17.70;99.90
71367;DHT22;60030;52.274;8.040;2022-07-23T06:47:01;17.70;99.90
71367;DHT22;60030;52.274;8.040;2022-07-23T06:49:31;17.60;99.90
71367;DHT22;60030;52.274;8.040;2022-07-23T06:51:58;17.60;99.90
71367;DHT22;60030;52.274;8.040;2022-07-23T06:54:25;17.50;99.90
71367;DHT22;60030;52.274;8.040;2022-07-23T06:56:52;17.40;99.90
71367;DHT22;60030;52.274;8.040;2022-07-23T06:59:19;17.50;99.90
71367;DHT22;60030;52.274;8.040;2022-07-23T07:01:46;17.40;99.90
71367;DHT22;60030;52.274;8.040;2022-07-23T07:04:13;17.60;99.90
71367;DHT22;60030;52.274;8.040;2022-07-23T07:06:42;17.50;99.90
71367;DHT22;60030;52.274;8.040;2022-07-23T07:09:09;17.60;99.90
71367;DHT22;60030;52.274;8.040;2022-07-23T07:11:36;17.70;99.90
71367;DHT22;60030;52.274;8.040;2022-07-23T07:14:03;17.80;99.90
71367;DHT22;60030;52.274;8.040;2022-07-23T07:16:31;17.80;99.90
71367;DHT22;60030;52.274;8.040;2022-07-23T07:18:58;17.90;99.90
71367;DHT22;60030;52.274;8.040;2022-07-23T07:21:26;18.10;99.90
71367;DHT22;60030;52.274;8.040;2022-07-23T07:23:54;18.20;99.90
71367;DHT22;60030;52.274;8.040;2022-07-23T07:26:21;18.10;99.90
71367;DHT22;60030;52.274;8.040;2022-07-23T07:28:49;18.20;99.90
71367;DHT22;60030;52.274;8.040;2022-07-23T07:31:16;17.90;99.90
71367;DHT22;60030;52.274;8.040;2022-07-23T07:33:43;18.00;99.90
71367;DHT22;60030;52.274;8.040;2022-07-23T07:36:10;18.00;99.90
71367;DHT22;60030;52.274;8.040;2022-07-23T07:38:37;18.10;99.90
71367;DHT22;60030;52.274;8.040;2022-07-23T07:41:06;18.20;99.90
71367;DHT22;60030;52.274;8.040;2022-07-23T07:43:33;18.00;99.90
71367;DHT22;60030;52.274;8.040;2022-07-23T07:46:00;18.00;99.90
71367;DHT22;60030;52.274;8.040;2022-07-23T07:48:27;18.10;99.90
71367;DHT22;60030;52.274;8.040;2022-07-23T07:50:54;18.50;99.90
71367;DHT22;60030;52.274;8.040;2022-07-23T07:53:22;18.60;99.90
71367;DHT22;60030;52.274;8.040;2022-07-23T07:55:49;18.80;99.90
71367;DHT22;60030;52.274;8.040;2022-07-23T07:58:17;18.90;99.90
71367;DHT22;60030;52.274;8.040;2022-07-23T08:00:45;18.80;99.90
71367;DHT22;60030;52.274;8.040;2022-07-23T08:03:12;18.80;99.90
71367;DHT22;60030;52.274;8.040;2022-07-23T08:05:39;19.00;99.90
71367;DHT22;60030;52.274;8.040;2022-07-23T08:08:06;18.90;99.90
71367;DHT22;60030;52.274;8.040;2022-07-23T08:10:35;19.00;99.90
71367;DHT22;60030;52.274;8.040;2022-07-23T08:13:02;19.10;99.90
71367;DHT22;60030;52.274;8.040;2022-07-23T08:15:31;19.00;99.90
71367;DHT22;60030;52.274;8.040;2022-07-23T08:17:58;19.00;99.90
71367;DHT22;60030;52.274;8.040;2022-07-23T08:20:26;18.80;99.90
71367;DHT22;60030;52.274;8.040;2022-07-23T08:22:55;18.60;99.90
71367;DHT22;60030;52.274;8.040;2022-07-23T08:25:24;18.80;99.90
71367;DHT22;60030;52.274;8.040;2022-07-23T08:27:52;18.90;99.90
71367;DHT22;60030;52.274;8.040;2022-07-23T08:30:19;19.00;99.90
71367;DHT22;60030;52.274;8.040;2022-07-23T08:32:53;19.20;99.90
71367;DHT22;60030;52.274;8.040;2022-07-23T08:35:26;19.40;99.90
71367;DHT22;60030;52.274;8.040;2022-07-23T08:37:54;19.50;99.90
71367;DHT22;60030;52.274;8.040;2022-07-23T08:40:21;19.60;99.90
71367;DHT22;60030;52.274;8.040;2022-07-23T08:42:49;19.60;99.90
71367;DHT22;60030;52.274;8.040;2022-07-23T08:45:19;19.50;99.90
71367;DHT22;60030;52.274;8.040;2022-07-23T08:47:53;19.50;99.90
71367;DHT22;60030;52.274;8.040;2022-07-23T08:50:21;19.40;99.90
71367;DHT22;60030;52.274;8.040;2022-07-23T08:52:49;19.60;99.90
71367;DHT22;60030;52.274;8.040;2022-07-23T08:55:17;19.70;99.90
71367;DHT22;60030;52.274;8.040;2022-07-23T08:57:44;19.90;99.90
71367;DHT22;60030;52.274;8.040;2022-07-23T09:00:15;19.70;99.90
71367;DHT22;60030;52.274;8.040;2022-07-23T09:02:44;19.50;99.90
71367;DHT22;60030;52.274;8.040;2022-07-23T09:05:14;19.50;99.90
71367;DHT22;60030;52.274;8.040;2022-07-23T09:08:10;19.60;99.90
71367;DHT22;60030;52.274;8.040;2022-07-23T09:10:46;19.60;99.90
71367;DHT22;60030;52.274;8.040;2022-07-23T09:13:38;19.60;99.90
71367;DHT22;60030;52.274;8.040;2022-07-23T09:16:08;19.90;99.90
71367;DHT22;60030;52.274;8.040;2022-07-23T09:18:42;20.20;99.90
71367;DHT22;60030;52.274;8.040;2022-07-23T09:21:23;20.40;99.90
71367;DHT22;60030;52.274;8.040;2022-07-23T09:23:53;20.30;99.90
71367;DHT22;60030;52.274;8.040;2022-07-23T09:26:33;20.40;99.90
71367;DHT22;60030;52.274;8.040;2022-07-23T09:29:04;20.20;99.90
71367;DHT22;60030;52.274;8.040;2022-07-23T09:31:41;20.10;99.90
71367;DHT22;60030;52.274;8.040;2022-07-23T09:34:13;20.20;99.90
71367;DHT22;60030;52.274;8.040;2022-07-23T09:36:42;20.10;99.90
71367;DHT22;60030;52.274;8.040;2022-07-23T09:39:10;20.00;99.90
71367;DHT22;60030;52.274;8.040;2022-07-23T09:41:40;20.30;99.90
71367;DHT22;60030;52.274;8.040;2022-07-23T09:44:09;20.50;99.90
71367;DHT22;60030;52.274;8.040;2022-07-23T09:46:37;20.40;99.90
71367;DHT22;60030;52.274;8.040;2022-07-23T09:49:17;20.20;99.90
71367;DHT22;60030;52.274;8.040;2022-07-23T09:51:52;20.20;99.90
71367;DHT22;60030;52.274;8.040;2022-07-23T09:54:30;20.30;99.90
71367;DHT22;60030;52.274;8.040;2022-07-23T09:57:02;20.60;99.90
71367;DHT22;60030;52.274;8.040;2022-07-23T09:59:32;20.40;99.90
71367;DHT22;60030;52.274;8.040;2022-07-23T10:02:00;20.40;99.90
71367;DHT22;60030;52.274;8.040;2022-07-23T10:04:33;20.40;99.90
71367;DHT22;60030;52.274;8.040;2022-07-23T10:07:26;20.30;99.90
71367;DHT22;60030;52.274;8.040;2022-07-23T10:10:15;20.50;99.90
71367;DHT22;60030;52.274;8.040;2022-07-23T10:13:00;20.40;99.90
71367;DHT22;60030;52.274;8.040;2022-07-23T10:15:45;20.20;99.90
71367;DHT22;60030;52.274;8.040;2022-07-23T10:18:13;20.50;99.90
71367;DHT22;60030;52.274;8.040;2022-07-23T10:20:40;20.70;99.90
71367;DHT22;60030;52.274;8.040;2022-07-23T10:23:15;20.80;99.90
71367;DHT22;60030;52.274;8.040;2022-07-23T10:25:49;20.80;99.90
71367;DHT22;60030;52.274;8.040;2022-07-23T10:28:44;21.00;99.90
71367;DHT22;60030;52.274;8.040;2022-07-23T10:31:25;21.10;99.90
71367;DHT22;60030;52.274;8.040;2022-07-23T10:34:02;20.90;99.90
71367;DHT22;60030;52.274;8.040;2022-07-23T10:36:37;20.90;99.90
71367;DHT22;60030;52.274;8.040;2022-07-23T10:39:13;21.10;99.90
71367;DHT22;60030;52.274;8.040;2022-07-23T10:41:42;21.20;99.90
71367;DHT22;60030;52.274;8.040;2022-07-23T10:44:10;21.30;99.90
71367;DHT22;60030;52.274;8.040;2022-07-23T10:46:53;21.20;99.90
71367;DHT22;60030;52.274;8.040;2022-07-23T10:49:26;21.20;99.90
71367;DHT22;60030;52.274;8.040;2022-07-23T10:52:16;21.30;99.90
71367;DHT22;60030;52.274;8.040;2022-07-23T10:54:46;21.50;99.90
71367;DHT22;60030;52.274;8.040;2022-07-23T10:57:15;21.70;99.90
71367;DHT22;60030;52.274;8.040;2022-07-23T11:00:12;21.60;99.90
71367;DHT22;60030;52.274;8.040;2022-07-23T11:02:40;21.40;99.90
71367;DHT22;60030;52.274;8.040;2022-07-23T11:05:09;21.30;99.90
71367;DHT22;60030;52.274;8.040;2022-07-23T11:08:09;21.50;99.90
71367;DHT22;60030;52.274;8.040;2022-07-23T11:10:35;21.60;99.90
71367;DHT22;60030;52.274;8.040;2022-07-23T11:13:30;21.90;99.90
71367;DHT22;60030;52.274;8.040;2022-07-23T11:19:08;22.10;99.20
71367;DHT22;60030;52.274;8.040;2022-07-23T11:21:51;22.20;98.60
71367;DHT22;60030;52.274;8.040;2022-07-23T11:24:20;22.50;99.00
71367;DHT22;60030;52.274;8.040;2022-07-23T11:26:52;22.70;97.60
71367;DHT22;60030;52.274;8.040;2022-07-23T11:29:39;22.60;97.90
71367;DHT22;60030;52.274;8.040;2022-07-23T11:32:08;22.60;97.70
71367;DHT22;60030;52.274;8.040;2022-07-23T11:34:39;22.90;96.80
71367;DHT22;60030;52.274;8.040;2022-07-23T11:37:08;23.00;96.20
71367;DHT22;60030;52.274;8.040;2022-07-23T11:39:35;23.10;96.00
71367;DHT22;60030;52.274;8.040;2022-07-23T11:42:05;23.30;95.40
71367;DHT22;60030;52.274;8.040;2022-07-23T11:44:34;23.50;95.50
71367;DHT22;60030;52.274;8.040;2022-07-23T11:47:04;23.20;94.80
71367;DHT22;60030;52.274;8.040;2022-07-23T11:49:31;23.50;95.40
71367;DHT22;60030;52.274;8.040;2022-07-23T11:52:06;23.60;95.70
71367;DHT22;60030;52.274;8.040;2022-07-23T11:54:34;23.60;94.00
71367;DHT22;60030;52.274;8.040;2022-07-23T11:57:04;23.90;93.30
71367;DHT22;60030;52.274;8.040;2022-07-23T11:59:32;24.10;92.40
71367;DHT22;60030;52.274;8.040;2022-07-23T12:02:01;23.50;92.80
71367;DHT22;60030;52.274;8.040;2022-07-23T12:04:37;23.80;93.30
71367;DHT22;60030;52.274;8.040;2022-07-23T12:09:47;24.10;91.90
71367;DHT22;60030;52.274;8.040;2022-07-23T12:12:15;24.40;91.10
71367;DHT22;60030;52.274;8.040;2022-07-23T12:14:48;24.70;90.90
71367;DHT22;60030;52.274;8.040;2022-07-23T12:17:15;24.80;89.80
71367;DHT22;60030;52.274;8.040;2022-07-23T12:19:42;24.60;90.00
71367;DHT22;60030;52.274;8.040;2022-07-23T12:22:10;24.80;88.70
71367;DHT22;60030;52.274;8.040;2022-07-23T12:24:53;25.00;89.10
71367;DHT22;60030;52.274;8.040;2022-07-23T12:27:22;25.20;87.80
71367;DHT22;60030;52.274;8.040;2022-07-23T12:29:49;25.60;88.40
71367;DHT22;60030;52.274;8.040;2022-07-23T12:32:21;25.40;83.80
71367;DHT22;60030;52.274;8.040;2022-07-23T12:34:50;25.00;85.40
71367;DHT22;60030;52.274;8.040;2022-07-23T12:37:28;25.20;86.00
71367;DHT22;60030;52.274;8.040;2022-07-23T12:39:55;25.60;85.30
71367;DHT22;60030;52.274;8.040;2022-07-23T12:42:24;26.00;83.10
71367;DHT22;60030;52.274;8.040;2022-07-23T12:45:08;25.90;81.40
71367;DHT22;60030;52.274;8.040;2022-07-23T12:47:55;26.20;80.80
71367;DHT22;60030;52.274;8.040;2022-07-23T12:50:38;26.20;80.00
71367;DHT22;60030;52.274;8.040;2022-07-23T12:53:08;26.60;81.30
71367;DHT22;60030;52.274;8.040;2022-07-23T12:55:36;26.70;79.50
71367;DHT22;60030;52.274;8.040;2022-07-23T12:58:06;26.40;76.60
71367;DHT22;60030;52.274;8.040;2022-07-23T13:00:59;26.50;76.60
71367;DHT22;60030;52.274;8.040;2022-07-23T13:03:29;26.80;76.30
71367;DHT22;60030;52.274;8.040;2022-07-23T13:05:57;27.20;74.40
71367;DHT22;60030;52.274;8.040;2022-07-23T13:08:26;27.80;71.80
71367;DHT22;60030;52.274;8.040;2022-07-23T13:10:53;28.20;70.20
71367;DHT22;60030;52.274;8.040;2022-07-23T13:13:24;28.40;66.20
71367;DHT22;60030;52.274;8.040;2022-07-23T13:15:52;28.60;65.10
71367;DHT22;60030;52.274;8.040;2022-07-23T13:18:20;29.00;64.00
71367;DHT22;60030;52.274;8.040;2022-07-23T13:20:49;29.30;63.10
71367;DHT22;60030;52.274;8.040;2022-07-23T13:23:17;29.60;61.60
71367;DHT22;60030;52.274;8.040;2022-07-23T13:25:45;29.20;64.10
71367;DHT22;60030;52.274;8.040;2022-07-23T13:28:12;30.20;60.40
71367;DHT22;60030;52.274;8.040;2022-07-23T13:30:42;30.80;59.40
71367;DHT22;60030;52.274;8.040;2022-07-23T13:33:09;30.60;58.10
71367;DHT22;60030;52.274;8.040;2022-07-23T13:35:37;31.00;57.30
71367;DHT22;60030;52.274;8.040;2022-07-23T13:38:04;31.20;55.40
71367;DHT22;60030;52.274;8.040;2022-07-23T13:40:33;31.10;55.30
71367;DHT22;60030;52.274;8.040;2022-07-23T13:43:01;31.50;55.40
71367;DHT22;60030;52.274;8.040;2022-07-23T13:45:28;31.80;55.20
71367;DHT22;60030;52.274;8.040;2022-07-23T13:47:56;32.00;55.20
71367;DHT22;60030;52.274;8.040;2022-07-23T13:50:23;31.20;54.30
71367;DHT22;60030;52.274;8.040;2022-07-23T13:52:50;29.30;57.40
71367;DHT22;60030;52.274;8.040;2022-07-23T13:55:18;29.20;59.20
71367;DHT22;60030;52.274;8.040;2022-07-23T13:57:45;29.50;57.70
71367;DHT22;60030;52.274;8.040;2022-07-23T14:00:12;30.30;56.50
71367;DHT22;60030;52.274;8.040;2022-07-23T14:02:40;31.00;55.40
71367;DHT22;60030;52.274;8.040;2022-07-23T14:05:10;30.60;55.30
71367;DHT22;60030;52.274;8.040;2022-07-23T14:07:38;30.00;55.60
71367;DHT22;60030;52.274;8.040;2022-07-23T14:10:07;30.00;55.70
71367;DHT22;60030;52.274;8.040;2022-07-23T14:12:34;29.90;56.00
71367;DHT22;60030;52.274;8.040;2022-07-23T14:15:02;30.60;54.90
71367;DHT22;60030;52.274;8.040;2022-07-23T14:17:30;30.90;54.70
71367;DHT22;60030;52.274;8.040;2022-07-23T14:19:57;31.10;55.00
71367;DHT22;60030;52.274;8.040;2022-07-23T14:22:26;29.50;57.30
71367;DHT22;60030;52.274;8.040;2022-07-23T14:24:53;30.30;55.80
71367;DHT22;60030;52.274;8.040;2022-07-23T14:27:20;30.20;55.00
71367;DHT22;60030;52.274;8.040;2022-07-23T14:29:48;30.60;55.20
71367;DHT22;60030;52.274;8.040;2022-07-23T14:32:15;30.70;54.60
71367;DHT22;60030;52.274;8.040;2022-07-23T14:34:42;29.70;55.00
71367;DHT22;60030;52.274;8.040;2022-07-23T14:37:09;29.70;56.20
71367;DHT22;60030;52.274;8.040;2022-07-23T14:39:38;29.40;56.60
71367;DHT22;60030;52.274;8.040;2022-07-23T14:42:06;29.20;56.90
71367;DHT22;60030;52.274;8.040;2022-07-23T14:44:34;29.00;57.30
71367;DHT22;60030;52.274;8.040;2022-07-23T14:47:01;28.60;58.00
71367;DHT22;60030;52.274;8.040;2022-07-23T14:49:28;28.20;58.50
71367;DHT22;60030;52.274;8.040;2022-07-23T14:51:56;28.40;58.40
71367;DHT22;60030;52.274;8.040;2022-07-23T14:54:23;28.40;58.00
71367;DHT22;60030;52.274;8.040;2022-07-23T14:56:53;27.90;59.10
71367;DHT22;60030;52.274;8.040;2022-07-23T14:59:20;28.20;58.70
71367;DHT22;60030;52.274;8.040;2022-07-23T15:01:48;28.00;59.60
71367;DHT22;60030;52.274;8.040;2022-07-23T15:04:15;28.40;58.30
71367;DHT22;60030;52.274;8.040;2022-07-23T15:06:42;28.60;57.70
71367;DHT22;60030;52.274;8.040;2022-07-23T15:09:10;29.50;57.00
71367;DHT22;60030;52.274;8.040;2022-07-23T15:11:37;30.00;56.50
71367;DHT22;60030;52.274;8.040;2022-07-23T15:14:06;29.80;55.90
71367;DHT22;60030;52.274;8.040;2022-07-23T15:16:33;29.80;55.60
71367;DHT22;60030;52.274;8.040;2022-07-23T15:19:01;29.90;55.40
71367;DHT22;60030;52.274;8.040;2022-07-23T15:21:28;30.20;55.50
71367;DHT22;60030;52.274;8.040;2022-07-23T15:23:55;30.80;54.50
71367;DHT22;60030;52.274;8.040;2022-07-23T15:26:24;31.20;53.60
71367;DHT22;60030;52.274;8.040;2022-07-23T15:28:51;31.80;52.40
71367;DHT22;60030;52.274;8.040;2022-07-23T15:31:20;31.00;53.70
71367;DHT22;60030;52.274;8.040;2022-07-23T15:33:48;32.00;52.40
71367;DHT22;60030;52.274;8.040;2022-07-23T15:36:17;32.60;50.90
71367;DHT22;60030;52.274;8.040;2022-07-23T15:38:44;32.10;51.50
71367;DHT22;60030;52.274;8.040;2022-07-23T15:41:11;30.30;54.30
71367;DHT22;60030;52.274;8.040;2022-07-23T15:43:38;30.50;55.00
71367;DHT22;60030;52.274;8.040;2022-07-23T15:46:05;31.00;53.70
71367;DHT22;60030;52.274;8.040;2022-07-23T15:48:36;30.70;54.00
71367;DHT22;60030;52.274;8.040;2022-07-23T15:51:04;30.60;54.70